createdAt,value
2018-09-02T00:00:36.924Z,10.50
2018-09-02T00:01:40.002Z,12.00
2018-09-02T00:02:42.942Z,12.00
2018-09-02T00:03:45.781Z,10.50
2018-09-02T00:04:49.336Z,13.50
2018-09-02T00:05:52.797Z,12.00
2018-09-02T00:06:55.668Z,9.00
2018-09-02T00:07:59.404Z,10.75
2018-09-02T00:09:02.379Z,11.00
2018-09-02T00:10:05.247Z,10.00
2018-09-02T00:11:08.124Z,12.00
2018-09-02T00:12:11.309Z,12.75
2018-09-02T00:13:14.183Z,12.00
2018-09-02T00:14:17.059Z,12.25
2018-09-02T00:15:19.969Z,13.00
2018-09-02T00:16:22.889Z,13.25
2018-09-02T00:17:25.749Z,15.50
2018-09-02T00:18:28.879Z,14.00
2018-09-02T00:19:31.740Z,11.50
2018-09-02T00:20:34.668Z,14.50
2018-09-02T00:21:37.564Z,12.50
2018-09-02T00:22:40.423Z,17.25
2018-09-02T00:23:43.300Z,14.50
2018-09-02T00:24:46.469Z,10.00
2018-09-02T00:25:49.340Z,12.50
2018-09-02T00:26:52.222Z,11.50
2018-09-02T00:27:55.297Z,9.75
2018-09-02T00:28:58.599Z,11.00
2018-09-02T00:30:01.466Z,12.50
2018-09-02T00:31:04.620Z,14.50
2018-09-02T00:32:07.532Z,10.00
2018-09-02T00:33:10.454Z,12.25
2018-09-02T00:34:13.312Z,12.50
2018-09-02T00:35:16.222Z,13.00
2018-09-02T00:36:19.093Z,11.00
2018-09-02T00:37:23.326Z,12.00
2018-09-02T00:38:26.208Z,12.00
2018-09-02T00:39:29.078Z,12.25
2018-09-02T00:40:31.928Z,12.00
2018-09-02T00:41:34.774Z,13.75
2018-09-02T00:42:37.629Z,10.50
2018-09-02T00:43:42.061Z,12.50
2018-09-02T00:44:44.932Z,12.00
2018-09-02T00:45:47.896Z,12.00
2018-09-02T00:46:50.778Z,12.75
2018-09-02T00:47:53.664Z,10.00
2018-09-02T00:48:56.623Z,13.25
2018-09-02T00:49:59.975Z,16.75
2018-09-02T00:51:02.830Z,12.25
2018-09-02T00:52:05.702Z,12.75
2018-09-02T00:53:08.584Z,11.00
2018-09-02T00:54:11.446Z,12.25
2018-09-02T00:55:14.323Z,12.75
2018-09-02T00:56:17.651Z,11.00
2018-09-02T00:57:20.633Z,13.00
2018-09-02T00:58:23.523Z,10.25
2018-09-02T00:59:26.374Z,12.00
2018-09-02T01:00:29.213Z,10.00
2018-09-02T01:01:32.046Z,13.75
2018-09-02T01:02:35.367Z,13.50
2018-09-02T01:03:38.296Z,15.00
2018-09-02T01:04:41.159Z,14.25
2018-09-02T01:05:44.041Z,12.00
2018-09-02T01:06:46.921Z,10.00
2018-09-02T01:07:49.789Z,13.00
2018-09-02T01:08:53.095Z,13.25
2018-09-02T01:09:55.940Z,9.25
2018-09-02T01:10:58.791Z,11.75
2018-09-02T01:12:01.651Z,11.25
2018-09-02T01:13:04.700Z,13.00
2018-09-02T01:14:07.757Z,12.50
2018-09-02T01:15:11.089Z,12.50
2018-09-02T01:16:14.003Z,13.00
2018-09-02T01:17:16.872Z,12.00
2018-09-02T01:18:19.753Z,14.00
2018-09-02T01:19:22.614Z,15.75
2018-09-02T01:20:25.514Z,12.00
2018-09-02T01:21:28.757Z,12.50
2018-09-02T01:22:31.642Z,12.50
2018-09-02T01:23:34.512Z,12.00
2018-09-02T01:24:37.382Z,15.00
2018-09-02T01:25:40.808Z,11.00
2018-09-02T01:26:44.621Z,11.75
2018-09-02T01:27:47.935Z,11.00
2018-09-02T01:28:52.533Z,12.50
2018-09-02T01:29:55.407Z,14.25
2018-09-02T01:30:58.296Z,12.50
2018-09-02T01:32:01.204Z,12.00
2018-09-02T01:33:04.091Z,12.00
2018-09-02T01:34:07.394Z,9.00
2018-09-02T01:35:14.217Z,12.00
2018-09-02T01:36:17.118Z,11.00
2018-09-02T01:37:20.017Z,13.75
2018-09-02T01:38:22.882Z,11.00
2018-09-02T01:39:25.747Z,13.75
2018-09-02T01:40:29.107Z,11.00
2018-09-02T01:41:32.019Z,13.50
2018-09-02T01:42:34.909Z,10.50
2018-09-02T01:43:37.790Z,13.00
2018-09-02T01:44:40.703Z,15.75
2018-09-02T01:45:43.577Z,10.50
2018-09-02T01:46:46.961Z,14.00
2018-09-02T01:47:49.850Z,11.75
2018-09-02T01:48:52.765Z,13.00
2018-09-02T01:49:55.605Z,12.00
2018-09-02T01:50:58.495Z,11.75
2018-09-02T01:52:01.361Z,11.50
2018-09-02T01:53:04.675Z,13.50
2018-09-02T01:54:07.537Z,14.00
2018-09-02T01:55:10.421Z,11.75
2018-09-02T01:56:13.298Z,13.50
2018-09-02T01:57:16.189Z,12.00
2018-09-02T01:58:19.046Z,12.00
2018-09-02T01:59:22.229Z,11.50
2018-09-02T02:00:25.119Z,14.25
2018-09-02T02:01:28.014Z,12.00
2018-09-02T02:02:31.653Z,11.75
2018-09-02T02:03:34.563Z,9.00
2018-09-02T02:04:43.258Z,15.25
2018-09-02T02:05:46.237Z,12.00
2018-09-02T02:06:49.098Z,10.50
2018-09-02T02:07:51.982Z,14.00
2018-09-02T02:08:54.869Z,15.50
2018-09-02T02:09:57.757Z,14.25
2018-09-02T02:11:00.924Z,12.00
2018-09-02T02:12:03.820Z,12.00
2018-09-02T02:13:06.674Z,12.50
2018-09-02T02:14:09.669Z,10.75
2018-09-02T02:15:12.561Z,12.00
2018-09-02T02:16:15.443Z,11.50
2018-09-02T02:17:18.719Z,11.25
2018-09-02T02:18:21.693Z,11.00
2018-09-02T02:19:24.787Z,13.50
2018-09-02T02:20:27.701Z,11.50
2018-09-02T02:21:30.571Z,11.50
2018-09-02T02:22:33.678Z,11.00
2018-09-02T02:23:36.939Z,12.00
2018-09-02T02:24:40.046Z,11.25
2018-09-02T02:25:43.687Z,12.00
2018-09-02T02:26:46.669Z,12.00
2018-09-02T02:27:49.535Z,11.75
2018-09-02T02:28:52.419Z,11.00
2018-09-02T02:29:55.672Z,12.50
2018-09-02T02:30:58.562Z,16.25
2018-09-02T02:32:01.469Z,11.25
2018-09-02T02:33:04.412Z,11.75
2018-09-02T02:34:07.295Z,14.00
2018-09-02T02:35:10.178Z,9.00
2018-09-02T02:36:14.449Z,11.00
2018-09-02T02:37:17.314Z,12.50
2018-09-02T02:38:20.177Z,11.00
2018-09-02T02:39:23.826Z,11.50
2018-09-02T02:40:26.707Z,11.00
2018-09-02T02:41:30.119Z,11.25
2018-09-02T02:42:33.365Z,12.00
2018-09-02T02:43:36.256Z,14.00
2018-09-02T02:44:39.155Z,11.25
2018-09-02T02:45:42.050Z,11.00
2018-09-02T02:46:44.983Z,11.00
2018-09-02T02:47:47.898Z,11.75
2018-09-02T02:48:51.216Z,15.00
2018-09-02T02:49:54.078Z,13.00
2018-09-02T02:50:56.961Z,12.50
2018-09-02T02:51:59.851Z,11.50
2018-09-02T02:53:04.390Z,9.50
2018-09-02T02:54:07.322Z,12.25
2018-09-02T02:55:10.827Z,12.25
2018-09-02T02:56:13.710Z,11.50
2018-09-02T02:57:16.586Z,12.00
2018-09-02T02:58:19.482Z,13.50
2018-09-02T02:59:22.349Z,14.00
2018-09-02T03:00:25.204Z,9.50
2018-09-02T03:01:28.580Z,15.00
2018-09-02T03:02:31.519Z,14.50
2018-09-02T03:03:34.436Z,13.50
2018-09-02T03:04:38.500Z,12.00
2018-09-02T03:05:41.376Z,12.50
2018-09-02T03:06:44.296Z,12.00
2018-09-02T03:07:47.682Z,13.50
2018-09-02T03:08:50.587Z,14.00
2018-09-02T03:09:53.472Z,13.50
2018-09-02T03:10:57.537Z,14.00
2018-09-02T03:12:00.522Z,12.50
2018-09-02T03:13:04.022Z,14.00
2018-09-02T03:14:07.682Z,11.75
2018-09-02T03:15:10.595Z,13.00
2018-09-02T03:16:13.535Z,12.00
2018-09-02T03:17:16.422Z,11.75
2018-09-02T03:18:19.335Z,10.50
2018-09-02T03:19:23.258Z,12.00
2018-09-02T03:20:26.530Z,11.75
2018-09-02T03:21:29.381Z,13.25
2018-09-02T03:22:32.259Z,11.50
2018-09-02T03:23:35.215Z,11.75
2018-09-02T03:24:38.085Z,13.25
2018-09-02T03:25:40.998Z,11.25
2018-09-02T03:26:44.365Z,15.00
2018-09-02T03:27:47.254Z,13.50
2018-09-02T03:28:50.433Z,11.00
2018-09-02T03:29:53.558Z,11.00
2018-09-02T03:30:57.493Z,14.50
2018-09-02T03:32:00.378Z,17.00
2018-09-02T03:33:04.601Z,12.50
2018-09-02T03:34:07.647Z,12.00
2018-09-02T03:35:10.546Z,11.25
2018-09-02T03:36:13.403Z,14.75
2018-09-02T03:37:16.745Z,14.00
2018-09-02T03:38:19.632Z,13.50
2018-09-02T03:39:22.943Z,13.25
2018-09-02T03:40:25.829Z,14.00
2018-09-02T03:41:28.709Z,15.00
2018-09-02T03:42:31.623Z,14.00
2018-09-02T03:43:34.489Z,14.00
2018-09-02T03:44:37.363Z,14.00
2018-09-02T03:45:40.255Z,15.00
2018-09-02T03:46:43.149Z,17.25
2018-09-02T03:47:46.026Z,17.00
2018-09-02T03:48:49.259Z,15.50
2018-09-02T03:49:52.166Z,15.50
2018-09-02T03:50:55.049Z,12.75
2018-09-02T03:51:58.270Z,14.00
2018-09-02T03:53:01.155Z,14.00
2018-09-02T03:54:04.041Z,14.00
2018-09-02T03:55:07.055Z,12.75
2018-09-02T03:56:09.910Z,14.00
2018-09-02T03:57:12.836Z,16.00
2018-09-02T03:58:16.105Z,16.25
2018-09-02T03:59:19.016Z,14.50
2018-09-02T04:00:21.877Z,14.25
2018-09-02T04:01:24.826Z,12.00
2018-09-02T04:02:27.697Z,13.00
2018-09-02T04:03:30.600Z,14.25
2018-09-02T04:04:33.932Z,15.00
2018-09-02T04:05:36.809Z,14.00
2018-09-02T04:06:39.666Z,12.00
2018-09-02T04:07:42.532Z,11.75
2018-09-02T04:08:45.418Z,11.50
2018-09-02T04:09:48.322Z,8.50
2018-09-02T04:10:51.590Z,11.00
2018-09-02T04:11:54.503Z,11.50
2018-09-02T04:12:57.405Z,12.25
2018-09-02T04:14:00.301Z,13.25
2018-09-02T04:15:03.186Z,11.00
2018-09-02T04:16:06.086Z,14.50
2018-09-02T04:17:09.479Z,10.50
2018-09-02T04:18:12.367Z,13.00
2018-09-02T04:19:15.256Z,12.25
2018-09-02T04:20:22.066Z,12.75
2018-09-02T04:21:24.923Z,13.75
2018-09-02T04:22:27.786Z,13.00
2018-09-02T04:23:31.045Z,12.75
2018-09-02T04:24:33.924Z,14.00
2018-09-02T04:25:37.612Z,18.50
2018-09-02T04:26:40.839Z,11.75
2018-09-02T04:27:43.711Z,15.50
2018-09-02T04:28:46.583Z,14.00
2018-09-02T04:29:49.918Z,16.00
2018-09-02T04:30:52.826Z,13.75
2018-09-02T04:31:55.682Z,15.75
2018-09-02T04:32:58.649Z,13.00
2018-09-02T04:34:01.536Z,12.50
2018-09-02T04:35:04.433Z,15.75
2018-09-02T04:36:07.776Z,20.25
2018-09-02T04:37:10.682Z,18.50
2018-09-02T04:38:13.575Z,21.00
2018-09-02T04:39:16.442Z,16.75
2018-09-02T04:40:19.437Z,17.50
2018-09-02T04:41:22.326Z,13.50
2018-09-02T04:42:25.585Z,17.75
2018-09-02T04:43:29.155Z,16.00
2018-09-02T04:44:32.026Z,16.50
2018-09-02T04:45:34.929Z,17.25
2018-09-02T04:46:37.819Z,17.75
2018-09-02T04:47:40.734Z,17.25
2018-09-02T04:48:44.069Z,21.50
2018-09-02T04:49:46.989Z,19.75
2018-09-02T04:50:49.901Z,21.75
2018-09-02T04:51:52.763Z,27.25
2018-09-02T04:52:55.878Z,22.75
2018-09-02T04:53:58.782Z,16.00
2018-09-02T04:55:02.134Z,17.00
2018-09-02T04:56:05.062Z,17.00
2018-09-02T04:57:07.942Z,17.00
2018-09-02T04:58:10.814Z,17.00
2018-09-02T04:59:13.693Z,19.00
2018-09-02T05:00:16.651Z,18.00
2018-09-02T05:01:20.020Z,17.50
2018-09-02T05:02:22.870Z,18.25
2018-09-02T05:03:26.715Z,20.50
2018-09-02T05:04:29.618Z,16.00
2018-09-02T05:05:32.524Z,16.00
2018-09-02T05:06:35.412Z,17.25
2018-09-02T05:07:38.696Z,18.00
2018-09-02T05:08:41.600Z,18.50
2018-09-02T05:09:44.487Z,20.00
2018-09-02T05:10:47.351Z,20.75
2018-09-02T05:11:50.230Z,18.00
2018-09-02T05:12:53.623Z,14.75
2018-09-02T05:13:56.939Z,21.25
2018-09-02T05:14:59.794Z,16.50
2018-09-02T05:16:02.697Z,20.00
2018-09-02T05:17:05.572Z,20.25
2018-09-02T05:18:08.614Z,16.75
2018-09-02T05:19:11.489Z,19.00
2018-09-02T05:20:14.372Z,18.00
2018-09-02T05:21:17.239Z,15.75
2018-09-02T05:22:20.208Z,16.00
2018-09-02T05:23:23.056Z,16.00
2018-09-02T05:24:25.983Z,18.50
2018-09-02T05:25:28.857Z,18.75
2018-09-02T05:26:32.090Z,20.50
2018-09-02T05:27:35.146Z,18.00
2018-09-02T05:28:38.039Z,19.50
2018-09-02T05:29:41.521Z,22.00
2018-09-02T05:33:17.487Z,21.25
2018-09-02T05:34:20.388Z,23.25
2018-09-02T05:35:23.255Z,25.00
2018-09-02T05:36:26.133Z,25.00
2018-09-02T05:37:29.026Z,18.75
2018-09-02T05:38:32.381Z,18.00
2018-09-02T05:39:35.242Z,18.50
2018-09-02T05:40:38.551Z,21.50
2018-09-02T05:41:41.480Z,20.25
2018-09-02T05:42:44.386Z,21.25
2018-09-02T05:43:47.448Z,24.00
2018-09-02T05:44:50.658Z,24.25
2018-09-02T05:45:53.538Z,23.00
2018-09-02T05:46:56.430Z,21.00
2018-09-02T05:47:59.313Z,31.00
2018-09-02T05:49:02.186Z,24.00
2018-09-02T05:50:05.058Z,20.00
2018-09-02T05:51:08.279Z,24.75
2018-09-02T05:52:11.210Z,23.00
2018-09-02T05:53:15.020Z,24.75
2018-09-02T05:54:18.002Z,24.25
2018-09-02T05:55:20.900Z,19.50
2018-09-02T05:56:23.805Z,28.50
2018-09-02T05:57:27.221Z,28.00
2018-09-02T05:58:30.120Z,30.75
2018-09-02T05:59:32.999Z,28.50
2018-09-02T06:00:35.891Z,22.00
2018-09-02T06:01:39.385Z,21.50
2018-09-02T06:02:43.467Z,17.50
2018-09-02T06:03:46.768Z,17.50
2018-09-02T06:04:49.653Z,19.25
2018-09-02T06:05:52.698Z,16.00
2018-09-02T06:06:55.615Z,20.25
2018-09-02T06:07:59.349Z,19.00
2018-09-02T06:09:05.169Z,19.75
2018-09-02T06:10:08.510Z,19.00
2018-09-02T06:11:12.671Z,18.75
2018-09-02T06:12:15.598Z,19.00
2018-09-02T06:13:18.471Z,19.50
2018-09-02T06:14:21.394Z,22.50
2018-09-02T06:15:24.440Z,19.25
2018-09-02T06:16:27.848Z,21.25
2018-09-02T06:17:30.758Z,16.75
2018-09-02T06:18:34.727Z,19.00
2018-09-02T06:19:37.628Z,18.00
2018-09-02T06:20:40.523Z,20.75
2018-09-02T06:21:43.422Z,20.75
2018-09-02T06:22:46.679Z,17.75
2018-09-02T06:23:49.577Z,15.00
2018-09-02T06:24:52.440Z,18.25
2018-09-02T06:25:55.319Z,20.25
2018-09-02T06:26:58.206Z,18.25
2018-09-02T06:28:01.067Z,17.25
2018-09-02T06:29:04.446Z,17.50
2018-09-02T06:30:07.385Z,18.00
2018-09-02T06:31:10.273Z,20.00
2018-09-02T06:32:13.130Z,15.00
2018-09-02T06:33:16.007Z,16.50
2018-09-02T06:34:18.872Z,15.00
2018-09-02T06:35:22.157Z,15.25
2018-09-02T06:36:25.068Z,18.00
2018-09-02T06:37:27.931Z,16.50
2018-09-02T06:38:31.584Z,15.75
2018-09-02T06:39:34.478Z,14.50
2018-09-02T06:40:37.376Z,14.75
2018-09-02T06:41:40.930Z,14.00
2018-09-02T06:42:43.809Z,13.75
2018-09-02T06:43:46.865Z,15.25
2018-09-02T06:44:50.332Z,16.25
2018-09-02T06:45:53.317Z,11.00
2018-09-02T06:46:56.245Z,14.00
2018-09-02T06:47:59.655Z,12.50
2018-09-02T06:49:02.584Z,15.75
2018-09-02T06:50:05.445Z,13.25
2018-09-02T06:51:08.340Z,16.25
2018-09-02T06:52:11.235Z,17.25
2018-09-02T06:53:14.166Z,16.00
2018-09-02T06:54:17.602Z,18.00
2018-09-02T06:55:20.796Z,15.00
2018-09-02T06:56:23.975Z,14.00
2018-09-02T06:57:27.606Z,17.00
2018-09-02T06:58:30.492Z,13.50
2018-09-02T06:59:33.408Z,12.50
2018-09-02T07:00:36.771Z,13.75
2018-09-02T07:01:39.636Z,13.75
2018-09-02T07:02:42.781Z,17.75
2018-09-02T07:03:45.688Z,28.75
2018-09-02T07:04:50.065Z,44.75
2018-09-02T07:05:52.972Z,38.75
2018-09-02T07:06:56.259Z,42.75
2018-09-02T07:07:59.143Z,25.75
2018-09-02T07:09:03.876Z,16.50
2018-09-02T07:10:07.457Z,18.75
2018-09-02T07:11:11.413Z,35.00
2018-09-02T07:12:14.317Z,45.75
2018-09-02T07:13:18.564Z,34.50
2018-09-02T07:14:21.444Z,24.75
2018-09-02T07:15:24.666Z,25.75
2018-09-02T07:16:28.406Z,19.00
2018-09-02T07:17:31.376Z,22.00
2018-09-02T07:18:35.083Z,22.00
2018-09-02T07:19:38.468Z,10.50
2018-09-02T07:20:41.371Z,10.00
2018-09-02T07:21:44.265Z,14.50
2018-09-02T07:22:47.160Z,15.75
2018-09-02T07:23:50.072Z,16.25
2018-09-02T07:24:54.402Z,14.50
2018-09-02T07:25:57.742Z,13.50
2018-09-02T07:27:00.614Z,12.25
2018-09-02T07:28:03.505Z,14.00
2018-09-02T07:29:06.550Z,13.75
2018-09-02T07:30:09.445Z,13.75
2018-09-02T07:31:12.403Z,12.75
2018-09-02T07:32:15.787Z,15.50
2018-09-02T07:33:19.548Z,9.75
2018-09-02T07:34:22.606Z,11.75
2018-09-02T07:35:25.474Z,11.75
2018-09-02T07:36:28.395Z,9.75
2018-09-02T07:37:32.405Z,9.75
2018-09-02T07:38:35.842Z,10.50
2018-09-02T07:39:38.715Z,10.00
2018-09-02T07:40:41.846Z,17.50
2018-09-02T07:41:44.729Z,12.75
2018-09-02T07:42:47.648Z,11.50
2018-09-02T07:43:50.614Z,20.00
2018-09-02T07:44:54.035Z,14.25
2018-09-02T07:45:57.418Z,12.00
2018-09-02T07:47:00.365Z,7.00
2018-09-02T07:48:04.257Z,10.00
2018-09-02T07:49:08.356Z,10.75
2018-09-02T07:50:11.343Z,11.00
2018-09-02T07:51:15.295Z,11.00
2018-09-02T07:52:19.317Z,9.75
2018-09-02T07:53:22.211Z,7.75
2018-09-02T07:54:25.716Z,9.50
2018-09-02T07:55:28.606Z,8.00
2018-09-02T07:56:31.473Z,7.50
2018-09-02T07:57:34.853Z,10.75
2018-09-02T07:58:37.748Z,10.25
2018-09-02T07:59:40.633Z,7.00
2018-09-02T08:00:46.795Z,9.75
2018-09-02T08:01:49.681Z,13.00
2018-09-02T08:02:55.533Z,10.25
2018-09-02T08:03:59.473Z,9.25
2018-09-02T08:05:02.374Z,8.75
2018-09-02T08:06:06.257Z,10.00
2018-09-02T08:07:09.531Z,8.50
2018-09-02T08:08:12.416Z,9.25
2018-09-02T08:09:15.312Z,11.50
2018-09-02T08:10:19.692Z,9.50
2018-09-02T08:11:22.616Z,12.00
2018-09-02T08:12:25.524Z,12.75
2018-09-02T08:13:28.626Z,12.00
2018-09-02T08:14:32.344Z,8.25
2018-09-02T08:15:36.633Z,9.25
2018-09-02T08:16:42.712Z,8.00
2018-09-02T08:17:45.602Z,7.75
2018-09-02T08:18:48.650Z,11.75
2018-09-02T08:19:51.715Z,10.25
2018-09-02T08:20:54.641Z,10.25
2018-09-02T08:21:57.992Z,9.25
2018-09-02T08:23:01.527Z,13.75
2018-09-02T08:24:04.454Z,12.50
2018-09-02T08:25:08.784Z,11.50
2018-09-02T08:26:11.724Z,9.75
2018-09-02T08:27:14.590Z,9.00
2018-09-02T08:28:17.615Z,10.75
2018-09-02T08:29:20.854Z,8.75
2018-09-02T08:30:23.754Z,9.25
2018-09-02T08:31:27.579Z,9.25
2018-09-02T08:32:30.527Z,8.75
2018-09-02T08:33:34.440Z,9.50
2018-09-02T08:34:37.371Z,11.00
2018-09-02T08:35:40.946Z,9.50
2018-09-02T08:36:43.849Z,9.25
2018-09-02T08:37:46.719Z,10.25
2018-09-02T08:38:50.257Z,10.25
2018-09-02T08:39:53.279Z,11.00
2018-09-02T08:40:56.187Z,13.25
2018-09-02T08:41:59.157Z,10.25
2018-09-02T08:43:02.358Z,10.00
2018-09-02T08:44:05.196Z,9.00
2018-09-02T08:45:11.020Z,10.00
2018-09-02T08:46:14.793Z,10.75
2018-09-02T08:47:19.740Z,10.00
2018-09-02T08:48:22.970Z,11.50
2018-09-02T08:49:25.860Z,8.75
2018-09-02T08:50:30.144Z,9.75
2018-09-02T08:51:33.079Z,9.50
2018-09-02T08:52:36.506Z,8.25
2018-09-02T08:53:41.660Z,10.00
2018-09-02T08:54:45.628Z,10.75
2018-09-02T08:55:48.794Z,10.75
2018-09-02T08:56:51.793Z,10.25
2018-09-02T08:57:55.010Z,9.75
2018-09-02T08:58:57.949Z,10.25
2018-09-02T09:00:01.637Z,8.75
2018-09-02T09:01:05.714Z,8.50
2018-09-02T09:02:08.895Z,7.00
2018-09-02T09:03:11.932Z,8.50
2018-09-02T09:04:14.924Z,9.50
2018-09-02T09:05:17.842Z,9.00
2018-09-02T09:06:21.162Z,8.00
2018-09-02T09:07:24.357Z,7.25
2018-09-02T09:08:27.444Z,10.25
2018-09-02T09:09:30.213Z,10.00
2018-09-02T09:10:33.325Z,7.00
2018-09-02T09:11:36.637Z,6.75
2018-09-02T09:12:40.190Z,9.00
2018-09-02T09:13:44.110Z,9.75
2018-09-02T09:14:48.071Z,10.25
2018-09-02T09:15:51.050Z,9.00
2018-09-02T09:16:54.176Z,7.50
2018-09-02T09:17:57.747Z,6.00
2018-09-02T09:19:01.581Z,5.50
2018-09-02T09:20:04.593Z,7.00
2018-09-02T09:21:07.727Z,6.25
2018-09-02T09:22:10.761Z,7.00
2018-09-02T09:23:13.684Z,9.00
2018-09-02T09:24:17.255Z,8.75
2018-09-02T09:25:21.374Z,7.50
2018-09-02T09:26:24.320Z,6.75
2018-09-02T09:27:27.838Z,8.00
2018-09-02T09:28:30.747Z,5.00
2018-09-02T09:29:33.618Z,7.00
2018-09-02T09:30:36.516Z,5.25
2018-09-02T09:31:39.730Z,7.25
2018-09-02T09:32:42.659Z,8.25
2018-09-02T09:33:46.519Z,6.00
2018-09-02T09:34:49.708Z,5.00
2018-09-02T09:35:53.189Z,5.50
2018-09-02T09:36:56.990Z,8.00
2018-09-02T09:38:00.839Z,6.00
2018-09-02T09:39:04.008Z,5.00
2018-09-02T09:40:07.453Z,4.75
2018-09-02T09:41:10.951Z,7.00
2018-09-02T09:42:13.898Z,5.00
2018-09-02T09:43:16.888Z,7.00
2018-09-02T09:44:20.107Z,4.00
2018-09-02T09:45:23.482Z,6.00
2018-09-02T09:46:26.367Z,4.50
2018-09-02T09:47:29.260Z,7.50
2018-09-02T09:48:32.158Z,6.00
2018-09-02T09:49:36.342Z,6.25
2018-09-02T09:50:39.733Z,4.00
2018-09-02T09:51:44.790Z,8.00
2018-09-02T09:52:47.683Z,4.50
2018-09-02T09:53:50.859Z,4.25
2018-09-02T09:54:53.941Z,4.00
2018-09-02T09:55:56.845Z,6.50
2018-09-02T09:57:01.622Z,6.25
2018-09-02T09:58:05.581Z,5.75
2018-09-02T09:59:08.463Z,6.50
2018-09-02T10:00:11.606Z,6.00
2018-09-02T10:01:17.476Z,8.00
2018-09-02T10:02:20.368Z,4.00
2018-09-02T10:03:23.870Z,4.50
2018-09-02T10:04:26.945Z,3.00
2018-09-02T10:05:29.853Z,6.75
2018-09-02T10:06:32.723Z,4.50
2018-09-02T10:07:35.860Z,7.75
2018-09-02T10:08:40.039Z,4.50
2018-09-02T10:09:44.048Z,4.00
2018-09-02T10:10:47.428Z,6.00
2018-09-02T10:11:50.424Z,3.50
2018-09-02T10:12:53.336Z,5.50
2018-09-02T10:13:56.868Z,5.50
2018-09-02T10:15:02.815Z,6.00
2018-09-02T10:16:06.742Z,3.00
2018-09-02T10:17:12.419Z,4.00
2018-09-02T10:18:16.609Z,3.75
2018-09-02T10:19:20.132Z,6.00
2018-09-02T10:20:23.231Z,4.50
2018-09-02T10:21:26.153Z,5.50
2018-09-02T10:22:29.351Z,3.00
2018-09-02T10:23:32.263Z,4.25
2018-09-02T10:24:36.043Z,6.00
2018-09-02T10:25:40.521Z,3.25
2018-09-02T10:26:43.414Z,4.00
2018-09-02T10:27:46.365Z,2.00
2018-09-02T10:28:50.215Z,3.00
2018-09-02T10:29:54.093Z,3.25
2018-09-02T10:32:20.976Z,6.75
2018-09-02T10:33:24.239Z,4.75
2018-09-02T10:34:29.711Z,4.50
2018-09-02T10:35:34.126Z,5.25
2018-09-02T10:36:38.757Z,5.00
2018-09-02T10:37:42.033Z,6.75
2018-09-02T10:38:45.503Z,4.75
2018-09-02T10:39:48.610Z,3.00
2018-09-02T10:40:51.545Z,6.00
2018-09-02T10:41:54.874Z,5.00
2018-09-02T10:42:57.797Z,6.00
2018-09-02T10:44:00.726Z,6.50
2018-09-02T10:45:04.619Z,6.50
2018-09-02T10:46:07.490Z,6.25
2018-09-02T10:47:10.416Z,5.25
2018-09-02T10:48:14.388Z,5.00
2018-09-02T10:49:18.839Z,4.00
2018-09-02T10:50:22.490Z,6.25
2018-09-02T10:51:25.375Z,6.50
2018-09-02T10:52:28.280Z,4.00
2018-09-02T10:53:32.481Z,6.00
2018-09-02T10:54:36.732Z,4.00
2018-09-02T10:55:41.375Z,3.50
2018-09-02T10:56:44.261Z,6.00
2018-09-02T10:57:47.742Z,4.00
2018-09-02T10:58:50.615Z,5.50
2018-09-02T10:59:54.262Z,5.50
2018-09-02T11:00:58.367Z,4.75
2018-09-02T11:02:01.246Z,5.75
2018-09-02T11:03:04.207Z,4.00
2018-09-02T11:04:07.113Z,4.00
2018-09-02T11:05:10.412Z,5.00
2018-09-02T11:06:13.275Z,4.00
2018-09-02T11:07:16.455Z,4.00
2018-09-02T11:08:19.330Z,5.50
2018-09-02T11:09:22.990Z,6.00
2018-09-02T11:10:25.867Z,7.00
2018-09-02T11:11:28.814Z,5.75
2018-09-02T11:12:31.747Z,3.75
2018-09-02T11:13:35.223Z,8.00
2018-09-02T11:14:38.701Z,5.00
2018-09-02T11:15:41.772Z,5.00
2018-09-02T11:16:46.240Z,6.25
2018-09-02T11:17:51.900Z,4.75
2018-09-02T11:18:54.915Z,5.75
2018-09-02T11:19:59.955Z,7.00
2018-09-02T11:21:03.273Z,5.00
2018-09-02T11:22:09.021Z,4.00
2018-09-02T11:23:13.488Z,4.00
2018-09-02T11:24:16.411Z,5.00
2018-09-02T11:25:20.547Z,7.00
2018-09-02T11:26:23.481Z,5.50
2018-09-02T11:27:26.358Z,5.00
2018-09-02T11:28:29.271Z,6.25
2018-09-02T11:29:32.313Z,4.00
2018-09-02T11:30:35.499Z,4.50
2018-09-02T11:31:38.555Z,4.00
2018-09-02T11:32:42.146Z,5.00
2018-09-02T11:33:46.964Z,6.00
2018-09-02T11:34:49.841Z,5.00
2018-09-02T11:35:52.703Z,4.75
2018-09-02T11:36:56.693Z,5.00
2018-09-02T11:38:00.657Z,7.00
2018-09-02T11:39:03.985Z,4.50
2018-09-02T11:40:07.581Z,5.00
2018-09-02T11:41:12.873Z,4.25
2018-09-02T11:42:16.722Z,7.25
2018-09-02T11:43:21.012Z,7.25
2018-09-02T11:44:25.651Z,6.50
2018-09-02T11:45:28.769Z,6.00
2018-09-02T11:46:32.345Z,3.50
2018-09-02T11:47:35.226Z,4.00
2018-09-02T11:48:39.708Z,5.75
2018-09-02T11:49:43.039Z,6.75
2018-09-02T11:50:47.864Z,7.00
2018-09-02T11:51:51.616Z,4.00
2018-09-02T11:52:57.900Z,4.50
2018-09-02T11:54:00.823Z,6.25
2018-09-02T11:55:04.386Z,4.00
2018-09-02T11:56:08.226Z,6.00
2018-09-02T11:57:11.232Z,4.50
2018-09-02T11:58:14.107Z,5.00
2018-09-02T11:59:17.618Z,4.00
2018-09-02T12:00:20.870Z,5.00
2018-09-02T12:02:33.228Z,3.75
2018-09-02T12:03:36.187Z,3.75
2018-09-02T12:04:39.143Z,7.00
2018-09-02T12:05:42.543Z,6.00
2018-09-02T12:06:45.468Z,4.00
2018-09-02T12:07:48.862Z,4.00
2018-09-02T12:08:51.734Z,3.50
2018-09-02T12:09:54.747Z,5.50
2018-09-02T12:11:01.651Z,5.00
2018-09-02T12:12:04.595Z,4.00
2018-09-02T12:13:08.638Z,4.00
2018-09-02T12:14:13.591Z,5.25
2018-09-02T12:15:16.819Z,6.00
2018-09-02T12:16:20.323Z,3.00
2018-09-02T12:17:26.437Z,5.50
2018-09-02T12:18:29.505Z,5.00
2018-09-02T12:19:33.558Z,5.00
2018-09-02T12:20:37.817Z,4.75
2018-09-02T12:21:42.401Z,4.00
2018-09-02T12:22:45.437Z,6.00
2018-09-02T12:23:48.667Z,4.00
2018-09-02T12:24:52.451Z,4.75
2018-09-02T12:25:55.798Z,4.00
2018-09-02T12:26:59.043Z,6.00
2018-09-02T12:28:02.082Z,6.00
2018-09-02T12:29:04.996Z,3.50
2018-09-02T12:30:07.941Z,7.00
2018-09-02T12:31:11.503Z,4.25
2018-09-02T12:32:14.475Z,6.00
2018-09-02T12:33:17.851Z,4.25
2018-09-02T12:34:20.749Z,7.00
2018-09-02T12:35:23.901Z,4.00
2018-09-02T12:36:26.781Z,6.00
2018-09-02T12:37:29.733Z,4.25
2018-09-02T12:38:33.827Z,7.50
2018-09-02T12:39:37.675Z,6.00
2018-09-02T12:40:41.443Z,4.00
2018-09-02T12:41:47.438Z,6.25
2018-09-02T12:42:50.446Z,6.00
2018-09-02T12:43:53.335Z,5.25
2018-09-02T12:44:57.542Z,4.00
2018-09-02T12:46:02.182Z,3.00
2018-09-02T12:47:06.446Z,4.25
2018-09-02T12:48:09.441Z,7.25
2018-09-02T12:49:12.397Z,5.25
2018-09-02T12:50:16.460Z,4.00
2018-09-02T12:51:20.685Z,4.00
2018-09-02T12:52:23.834Z,8.50
2018-09-02T12:53:27.417Z,4.00
2018-09-02T12:54:34.099Z,3.25
2018-09-02T12:55:37.742Z,6.00
2018-09-02T12:56:40.689Z,5.50
2018-09-02T12:57:45.149Z,8.25
2018-09-02T12:58:48.100Z,5.00
2018-09-02T12:59:51.050Z,8.00
2018-09-02T13:00:54.431Z,6.00
2018-09-02T13:01:58.243Z,6.50
2018-09-02T13:03:02.082Z,7.00
2018-09-02T13:04:05.495Z,6.00
2018-09-02T13:05:08.409Z,5.75
2018-09-02T13:06:11.422Z,4.00
2018-09-02T13:07:14.424Z,3.75
2018-09-02T13:08:17.320Z,4.00
2018-09-02T13:09:20.252Z,5.00
2018-09-02T13:10:27.181Z,3.00
2018-09-02T13:11:30.183Z,4.00
2018-09-02T13:12:35.775Z,4.00
2018-09-02T13:13:38.674Z,6.50
2018-09-02T13:14:42.472Z,4.00
2018-09-02T13:15:45.423Z,3.75
2018-09-02T13:16:50.062Z,4.00
2018-09-02T13:17:52.960Z,5.00
2018-09-02T13:18:55.943Z,5.00
2018-09-02T13:19:59.899Z,4.50
2018-09-02T13:21:02.816Z,6.00
2018-09-02T13:22:06.686Z,3.50
2018-09-02T13:23:10.635Z,7.00
2018-09-02T13:24:13.524Z,5.00
2018-09-02T13:25:16.497Z,6.00
2018-09-02T13:26:20.608Z,5.00
2018-09-02T13:27:23.923Z,5.00
2018-09-02T13:28:26.870Z,4.00
2018-09-02T13:29:30.397Z,4.75
2018-09-02T13:30:33.311Z,4.00
2018-09-02T13:31:36.664Z,5.00
2018-09-02T13:32:41.866Z,4.25
2018-09-02T13:33:44.785Z,7.00
2018-09-02T13:34:47.663Z,7.00
2018-09-02T13:35:51.005Z,5.25
2018-09-02T13:36:54.134Z,4.75
2018-09-02T13:37:57.037Z,5.00
2018-09-02T13:38:59.925Z,7.00
2018-09-02T13:40:02.935Z,7.50
2018-09-02T13:41:07.263Z,4.50
2018-09-02T13:42:10.462Z,4.00
2018-09-02T13:43:13.373Z,5.00
2018-09-02T13:44:16.306Z,7.25
2018-09-02T13:45:19.280Z,4.00
2018-09-02T13:46:22.159Z,5.50
2018-09-02T13:47:26.363Z,5.25
2018-09-02T13:48:29.803Z,4.25
2018-09-02T13:49:32.730Z,5.00
2018-09-02T13:50:35.699Z,4.00